createdAt,value
2023-05-24T00:00:16.531Z,20.8
2023-05-24T00:05:53.890Z,20.8
2023-05-24T00:11:45.018Z,20.8
2023-05-24T00:17:21.803Z,20.8
2023-05-24T00:23:15.387Z,20.7
2023-05-24T00:29:07.504Z,20.7
2023-05-24T00:34:44.217Z,20.7
2023-05-24T00:40:36.029Z,20.7
2023-05-24T00:46:27.830Z,20.7
2023-05-24T00:52:20.910Z,20.7
2023-05-24T00:57:57.558Z,20.7
2023-05-24T01:03:50.974Z,20.7
2023-05-24T01:09:45.237Z,20.7
2023-05-24T01:15:37.259Z,20.7
2023-05-24T01:21:28.748Z,20.6
2023-05-24T01:27:19.561Z,20.7
2023-05-24T01:33:12.366Z,20.6
2023-05-24T01:38:48.894Z,20.7
2023-05-24T01:44:24.931Z,20.7
2023-05-24T01:50:16.818Z,20.6
2023-05-24T01:56:08.352Z,20.7
2023-05-24T02:02:00.183Z,20.7
2023-05-24T02:07:36.378Z,20.6
2023-05-24T02:13:27.937Z,20.6
2023-05-24T02:19:19.430Z,20.6
2023-05-24T02:24:55.923Z,20.6
2023-05-24T02:30:47.407Z,20.6
2023-05-24T02:36:39.213Z,20.6
2023-05-24T02:42:29.831Z,20.6
2023-05-24T02:48:22.145Z,20.6
2023-05-24T02:53:58.435Z,20.6
2023-05-24T02:59:50.065Z,20.6
2023-05-24T03:05:43.344Z,20.6
2023-05-24T03:11:36.770Z,20.6
2023-05-24T03:17:27.436Z,20.6
2023-05-24T03:23:20.228Z,20.6
2023-05-24T03:29:11.582Z,20.6
2023-05-24T03:35:02.770Z,20.6
2023-05-24T03:40:54.733Z,20.6
2023-05-24T03:47:00.670Z,20.6
2023-05-24T03:52:52.998Z,20.6
2023-05-24T03:58:44.706Z,20.6
2023-05-24T04:04:51.597Z,20.6
2023-05-24T04:10:12.047Z,20.6
2023-05-24T04:16:03.815Z,20.6
2023-05-24T04:21:57.110Z,20.6
2023-05-24T04:27:48.869Z,20.6
2023-05-24T04:33:41.602Z,20.6
2023-05-24T04:39:33.014Z,20.6
2023-05-24T04:45:24.496Z,20.6
2023-05-24T04:51:17.460Z,20.6
2023-05-24T04:57:08.718Z,20.6
2023-05-24T05:02:47.312Z,20.6
2023-05-24T05:08:40.057Z,20.7
2023-05-24T05:14:32.066Z,20.7
2023-05-24T05:20:24.470Z,20.7
2023-05-24T05:26:01.520Z,20.7
2023-05-24T05:31:37.732Z,20.7
2023-05-24T05:37:17.219Z,20.7
2023-05-24T05:43:09.538Z,20.8
2023-05-24T05:48:46.374Z,20.8
2023-05-24T05:54:37.300Z,20.8
2023-05-24T06:00:29.218Z,20.8
2023-05-24T06:06:22.854Z,20.8
2023-05-24T06:12:15.904Z,20.8
2023-05-24T06:18:07.840Z,20.8
2023-05-24T06:24:10.170Z,20.8
2023-05-24T06:30:01.002Z,20.8
2023-05-24T06:36:01.423Z,20.8
2023-05-24T06:41:52.335Z,20.8
2023-05-24T06:47:43.431Z,20.8
2023-05-24T06:53:36.585Z,20.8
2023-05-24T06:59:30.550Z,20.8
2023-05-24T07:05:22.921Z,20.8
2023-05-24T07:11:14.891Z,20.8
2023-05-24T07:16:51.345Z,20.8
2023-05-24T07:22:43.736Z,20.8
2023-05-24T07:28:37.910Z,20.9
2023-05-24T07:34:12.251Z,20.9
2023-05-24T07:39:51.623Z,20.9
2023-05-24T07:45:44.011Z,20.9
2023-05-24T07:51:20.747Z,20.9
2023-05-24T07:57:12.040Z,20.9
2023-05-24T08:03:05.130Z,20.9
2023-05-24T08:08:41.666Z,20.9
2023-05-24T08:14:32.949Z,21
2023-05-24T08:20:10.469Z,21
2023-05-24T08:26:05.374Z,21
2023-05-24T08:31:59.046Z,21
2023-05-24T08:37:50.244Z,21
2023-05-24T08:43:53.532Z,21.1
2023-05-24T08:49:32.978Z,21.1
2023-05-24T08:55:25.703Z,21.1
2023-05-24T09:01:02.435Z,21
2023-05-24T09:06:25.304Z,21.1
2023-05-24T09:12:21.960Z,21.1
2023-05-24T09:18:22.931Z,21.1
2023-05-24T09:24:18.700Z,21.1
2023-05-24T09:29:55.739Z,21.1
2023-05-24T09:35:33.271Z,21.1
2023-05-24T09:41:24.259Z,21
2023-05-24T09:46:46.782Z,21.1
2023-05-24T09:52:40.011Z,21.1
2023-05-24T09:58:16.796Z,21.1
2023-05-24T10:04:25.409Z,21.1
2023-05-24T10:10:17.164Z,21.1
2023-05-24T10:16:08.942Z,21.1
2023-05-24T11:01:56.348Z,21.1
2023-05-24T11:07:18.133Z,21.1
2023-05-24T11:12:24.129Z,21.1
2023-05-24T11:17:47.990Z,21.1
2023-05-24T11:23:09.917Z,21.1
2023-05-24T11:28:45.790Z,21.1
2023-05-24T11:34:28.380Z,21
2023-05-24T11:40:14.810Z,21.1
2023-05-24T11:45:51.628Z,21.1
2023-05-24T11:51:39.248Z,21.1
2023-05-24T11:57:16.128Z,21.1
2023-05-24T12:02:55.495Z,21.1
2023-05-24T12:08:35.232Z,21.1
2023-05-24T12:14:25.086Z,21.1
2023-05-24T12:20:20.047Z,21.1
2023-05-24T12:25:59.325Z,21.1
2023-05-24T12:31:36.411Z,21.1
2023-05-24T12:37:14.128Z,21.1
2023-05-24T12:43:08.710Z,21.1
2023-05-24T12:49:00.937Z,21.1
2023-05-24T12:54:37.130Z,21.1
2023-05-24T13:05:36.922Z,21.1
2023-05-24T13:10:58.528Z,21.1
2023-05-24T13:16:35.619Z,21.1
2023-05-24T13:22:12.756Z,21.1
2023-05-24T13:39:47.275Z,21.1
2023-05-24T14:06:52.484Z,21.1
2023-05-24T14:46:31.180Z,21.2
2023-05-24T14:52:07.385Z,21.3
2023-05-24T14:57:44.072Z,21.2
2023-05-24T15:03:24.139Z,21.2
2023-05-24T15:09:00.086Z,21.2
2023-05-24T15:14:36.932Z,21.3
2023-05-24T15:20:13.504Z,21.3
2023-05-24T15:25:50.351Z,21.3
2023-05-24T15:31:29.610Z,21.3
2023-05-24T15:37:08.226Z,21.3
2023-05-24T15:42:43.385Z,21.3
2023-05-24T15:48:35.679Z,21.3
2023-05-24T15:55:37.453Z,21.2
2023-05-24T16:01:27.773Z,21.3
2023-05-24T16:07:05.058Z,21.3
2023-05-24T16:12:44.406Z,21.3
2023-05-24T16:18:38.174Z,21.3
2023-05-24T16:24:33.037Z,21.3
2023-05-24T16:30:25.847Z,21.3
2023-05-24T16:36:36.141Z,21.3
2023-05-24T16:42:27.935Z,21.3
2023-05-24T16:48:04.573Z,21.3
2023-05-24T16:53:56.106Z,21.3
2023-05-24T16:59:50.061Z,21.3
2023-05-24T17:05:43.174Z,21.3
2023-05-24T17:11:38.041Z,21.3
2023-05-24T17:17:29.907Z,21.3
2023-05-24T17:23:21.696Z,21.3
2023-05-24T17:29:01.792Z,21.3
2023-05-24T17:34:53.909Z,21.3
2023-05-24T17:40:45.445Z,21.3
2023-05-24T17:46:39.063Z,21.3
2023-05-24T17:52:17.744Z,21.3
2023-05-24T17:58:12.504Z,21.3
2023-05-24T18:04:05.664Z,21.3
2023-05-24T18:10:00.462Z,21.3
2023-05-24T18:15:52.693Z,21.3
2023-05-24T18:21:45.281Z,21.3
2023-05-24T18:27:41.985Z,21.3
2023-05-24T18:33:52.934Z,21.3
2023-05-24T18:39:29.275Z,21.3
2023-05-24T18:45:06.612Z,21.3
2023-05-24T18:50:59.364Z,21.3
2023-05-24T18:56:35.534Z,21.3
2023-05-24T19:02:14.284Z,21.3
2023-05-24T19:08:08.347Z,21.3
2023-05-24T19:13:43.990Z,21.3
2023-05-24T19:19:37.263Z,21.3
2023-05-24T19:25:30.401Z,21.3
2023-05-24T19:31:14.106Z,21.3
2023-05-24T19:37:02.226Z,21.2
2023-05-24T19:42:38.766Z,21.3
2023-05-24T19:48:30.785Z,21.3
2023-05-24T19:54:08.659Z,21.3
2023-05-24T19:59:45.192Z,21.3
2023-05-24T20:05:23.782Z,21.3
2023-05-24T20:11:00.326Z,21.3
2023-05-24T20:16:21.995Z,21.3
2023-05-24T20:21:58.709Z,21.3
2023-05-24T20:27:34.854Z,21.3
2023-05-24T20:33:24.349Z,21.3
2023-05-24T20:39:00.892Z,21.3
2023-05-24T20:44:37.221Z,21.2
2023-05-24T20:50:16.586Z,21.2
2023-05-24T20:55:52.706Z,21.2
2023-05-24T21:01:32.066Z,21.3
2023-05-24T21:07:09.632Z,21.3
2023-05-24T21:12:30.989Z,21.3
2023-05-24T21:17:52.455Z,21.3
2023-05-24T21:23:29.151Z,21.4
2023-05-24T21:28:49.483Z,21.3
2023-05-24T21:34:26.414Z,21.3
2023-05-24T21:40:02.756Z,21.2
2023-05-24T21:45:38.711Z,21.3
2023-05-24T21:51:30.962Z,21.3
2023-05-24T21:57:24.926Z,21.2
2023-05-24T22:03:18.408Z,21.2
2023-05-24T22:09:10.733Z,21.2
2023-05-24T22:15:01.775Z,21.3
2023-05-24T22:21:01.845Z,21.2
2023-05-24T22:26:54.042Z,21.2
2023-05-24T22:32:32.337Z,21.2
2023-05-24T22:38:23.674Z,21.3
2023-05-24T22:44:00.122Z,21.2
2023-05-24T22:49:36.946Z,21.2
